createdAt,value
2023-05-22T00:02:12.145Z,80.35
2023-05-22T00:06:24.668Z,80.76
2023-05-22T00:10:36.468Z,80.72
2023-05-22T00:14:48.245Z,81.13
2023-05-22T00:19:01.928Z,81.63
2023-05-22T00:23:15.761Z,81.61
2023-05-22T00:27:27.705Z,81.91
2023-05-22T00:31:39.482Z,81.89
2023-05-22T00:35:51.339Z,82.75
2023-05-22T00:40:03.864Z,82.61
2023-05-22T00:44:15.504Z,82.83
2023-05-22T00:48:27.263Z,83.77
2023-05-22T00:52:43.671Z,84.03
2023-05-22T00:56:55.766Z,84.91
2023-05-22T01:01:09.728Z,84.61
2023-05-22T01:05:21.453Z,84.29
2023-05-22T01:09:33.141Z,84.74
2023-05-22T01:14:13.193Z,85.27
2023-05-22T01:18:34.984Z,85.55
2023-05-22T01:23:19.802Z,85.14
2023-05-22T01:27:46.636Z,84.72
2023-05-22T01:32:00.948Z,85.24
2023-05-22T01:36:15.747Z,85.29
2023-05-22T01:40:28.461Z,84.92
2023-05-22T01:44:41.418Z,85.11
2023-05-22T01:48:53.038Z,85.22
2023-05-22T01:53:26.379Z,85.24
2023-05-22T01:57:57.226Z,85.26
2023-05-22T02:02:11.811Z,85.45
2023-05-22T02:06:28.864Z,85.40
2023-05-22T02:10:42.324Z,84.58
2023-05-22T02:14:55.561Z,84.52
2023-05-22T02:19:07.700Z,84.34
2023-05-22T02:23:20.192Z,84.19
2023-05-22T02:27:31.816Z,84.19
2023-05-22T02:31:43.616Z,84.40
2023-05-22T02:35:55.433Z,84.43
2023-05-22T02:40:10.174Z,84.68
2023-05-22T02:44:22.062Z,84.49
2023-05-22T02:48:33.759Z,84.35
2023-05-22T02:52:45.462Z,84.46
2023-05-22T02:56:57.222Z,84.53
2023-05-22T03:01:09.151Z,84.74
2023-05-22T03:05:20.851Z,84.92
2023-05-22T03:09:32.629Z,85.28
2023-05-22T03:13:44.369Z,85.39
2023-05-22T03:17:56.440Z,85.38
2023-05-22T03:22:08.258Z,85.79
2023-05-22T03:26:21.427Z,85.84
2023-05-22T03:30:33.639Z,85.78
2023-05-22T03:35:00.717Z,85.94
2023-05-22T03:39:12.422Z,85.67
2023-05-22T03:43:32.922Z,86.03
2023-05-22T03:47:44.741Z,86.17
2023-05-22T03:51:56.571Z,86.42
2023-05-22T03:56:08.323Z,86.19
2023-05-22T04:00:20.798Z,86.33
2023-05-22T04:04:38.449Z,86.32
2023-05-22T04:08:50.377Z,86.21
2023-05-22T04:13:02.353Z,86.65
2023-05-22T04:17:14.129Z,86.61
2023-05-22T04:21:26.459Z,86.55
2023-05-22T04:25:38.157Z,86.67
2023-05-22T04:29:52.641Z,86.59
2023-05-22T04:34:05.386Z,86.87
2023-05-22T04:38:18.456Z,86.49
2023-05-22T04:42:30.918Z,86.43
2023-05-22T04:46:42.649Z,86.27
2023-05-22T04:50:54.536Z,86.15
2023-05-22T04:55:07.490Z,85.88
2023-05-22T04:59:19.351Z,85.66
2023-05-22T05:03:31.142Z,84.40
2023-05-22T05:07:43.745Z,82.75
2023-05-22T05:11:55.474Z,81.27
2023-05-22T05:16:07.390Z,80.17
2023-05-22T05:20:20.493Z,80.73
2023-05-22T05:24:32.282Z,81.56
2023-05-22T05:28:44.079Z,82.02
2023-05-22T05:32:56.279Z,82.52
2023-05-22T05:37:26.583Z,82.58
2023-05-22T05:41:41.515Z,82.38
2023-05-22T05:45:54.785Z,82.36
2023-05-22T05:50:07.183Z,82.58
2023-05-22T05:54:20.458Z,82.88
2023-05-22T05:58:33.510Z,83.29
2023-05-22T06:03:07.313Z,83.18
2023-05-22T06:07:34.316Z,82.77
2023-05-22T06:11:46.046Z,81.52
2023-05-22T06:16:00.743Z,80.85
2023-05-22T06:20:15.221Z,80.37
2023-05-22T06:24:27.317Z,79.79
2023-05-22T06:28:39.871Z,79.75
2023-05-22T06:32:52.498Z,78.25
2023-05-22T06:37:04.484Z,76.21
2023-05-22T06:41:22.867Z,74.85
2023-05-22T06:45:34.836Z,71.01
2023-05-22T06:50:04.248Z,67.48
2023-05-22T06:54:16.100Z,64.37
2023-05-22T06:58:30.930Z,60.78
2023-05-22T07:02:42.775Z,58.09
2023-05-22T07:07:13.118Z,55.04
2023-05-22T07:11:25.033Z,53.11
2023-05-22T07:15:36.666Z,51.74
2023-05-22T07:19:50.622Z,50.71
2023-05-22T07:24:08.097Z,48.96
2023-05-22T07:28:23.837Z,46.99
2023-05-22T07:32:43.129Z,46.68
2023-05-22T07:36:56.871Z,44.84
2023-05-22T07:41:08.568Z,44.07
2023-05-22T07:45:20.593Z,43.63
2023-05-22T07:49:32.849Z,43.25
2023-05-22T07:53:46.321Z,42.42
2023-05-22T07:57:57.922Z,41.22
2023-05-22T08:02:18.633Z,40.37
2023-05-22T08:06:30.960Z,39.41
2023-05-22T08:11:01.756Z,39.60
2023-05-22T08:15:14.377Z,38.21
2023-05-22T08:19:26.281Z,38.33
2023-05-22T08:23:38.652Z,37.27
2023-05-22T08:27:50.313Z,36.72
2023-05-22T08:32:02.255Z,36.08
2023-05-22T08:36:13.901Z,35.43
2023-05-22T08:40:36.512Z,35.93
2023-05-22T08:44:48.858Z,34.79
2023-05-22T08:49:01.423Z,34.56
2023-05-22T08:53:15.567Z,34.94
2023-05-22T08:57:28.955Z,35.22
2023-05-22T09:01:40.726Z,35.06
2023-05-22T09:05:52.359Z,34.83
2023-05-22T09:10:05.729Z,35.16
2023-05-22T09:14:18.665Z,35.19
2023-05-22T09:18:30.312Z,35.74
2023-05-22T09:22:41.889Z,35.87
2023-05-22T09:26:53.461Z,34.16
2023-05-22T09:31:06.288Z,34.73
2023-05-22T09:35:19.538Z,35.29
2023-05-22T09:39:45.663Z,36.28
2023-05-22T09:43:58.342Z,37.07
2023-05-22T09:48:12.588Z,35.90
2023-05-22T09:52:24.213Z,34.74
2023-05-22T09:56:39.575Z,33.13
2023-05-22T10:00:52.819Z,33.58
2023-05-22T10:05:09.384Z,35.18
2023-05-22T10:09:30.660Z,36.75
2023-05-22T10:13:43.194Z,38.10
2023-05-22T10:17:55.637Z,38.83
2023-05-22T10:22:07.443Z,38.43
2023-05-22T10:26:19.810Z,38.17
2023-05-22T10:30:40.648Z,36.84
2023-05-22T10:35:25.235Z,35.55
2023-05-22T10:40:00.907Z,36.93
2023-05-22T10:44:12.524Z,36.80
2023-05-22T10:48:24.157Z,36.18
2023-05-22T10:52:36.582Z,35.77
2023-05-22T10:56:48.183Z,36.21
2023-05-22T11:01:13.326Z,35.89
2023-05-22T11:05:27.941Z,35.21
2023-05-22T11:09:45.926Z,35.39
2023-05-22T11:14:04.290Z,36.03
2023-05-22T11:18:17.100Z,36.31
2023-05-22T11:22:32.446Z,35.95
2023-05-22T11:26:44.453Z,35.97
2023-05-22T11:30:56.168Z,34.89
2023-05-22T11:35:11.250Z,34.01
2023-05-22T11:39:23.120Z,34.36
2023-05-22T11:43:36.889Z,35.03
2023-05-22T11:47:48.920Z,36.30
2023-05-22T11:52:00.641Z,37.22
2023-05-22T11:56:12.294Z,37.59
2023-05-22T12:00:23.999Z,36.99
2023-05-22T12:04:37.701Z,36.77
2023-05-22T12:08:49.598Z,35.45
2023-05-22T12:13:01.211Z,35.61
2023-05-22T12:17:13.535Z,36.09
2023-05-22T12:21:27.060Z,36.85
2023-05-22T12:25:38.653Z,37.43
2023-05-22T12:29:50.907Z,38.19
2023-05-22T12:34:05.211Z,37.45
2023-05-22T12:38:16.818Z,37.25
2023-05-22T12:42:28.802Z,37.08
2023-05-22T12:46:41.096Z,37.62
2023-05-22T12:50:53.357Z,38.20
2023-05-22T12:55:05.379Z,38.78
2023-05-22T12:59:18.008Z,39.98
2023-05-22T13:03:31.300Z,39.85
2023-05-22T13:07:42.972Z,39.64
2023-05-22T13:11:55.233Z,40.47
2023-05-22T13:16:07.040Z,40.66
2023-05-22T13:20:18.848Z,40.80
2023-05-22T13:24:30.628Z,41.67
2023-05-22T13:28:42.212Z,41.31
2023-05-22T13:32:54.000Z,41.66
2023-05-22T13:37:05.821Z,41.44
2023-05-22T13:41:17.815Z,42.17
2023-05-22T13:45:29.568Z,42.46
2023-05-22T13:49:41.267Z,42.53
2023-05-22T13:53:52.876Z,42.70
2023-05-22T13:58:04.921Z,42.17
2023-05-22T14:02:19.620Z,41.76
2023-05-22T14:06:31.460Z,43.60
2023-05-22T14:10:43.149Z,46.09
2023-05-22T14:14:54.900Z,48.17
2023-05-22T14:19:06.693Z,50.57
2023-05-22T14:23:18.382Z,55.00
2023-05-22T14:27:30.205Z,58.96
2023-05-22T14:31:51.796Z,61.61
2023-05-22T14:36:04.129Z,63.40
2023-05-22T14:40:16.246Z,64.23
2023-05-22T14:44:27.968Z,65.11
2023-05-22T14:48:39.697Z,65.36
2023-05-22T14:52:51.656Z,65.29
2023-05-22T14:57:03.638Z,65.00
2023-05-22T15:01:15.556Z,64.73
2023-05-22T15:05:27.373Z,64.56
2023-05-22T15:09:39.114Z,63.87
2023-05-22T15:13:51.618Z,63.42
2023-05-22T15:18:04.887Z,62.62
2023-05-22T15:22:20.024Z,62.76
2023-05-22T15:26:32.332Z,62.32
2023-05-22T15:30:44.029Z,62.50
2023-05-22T15:34:55.854Z,62.75
2023-05-22T15:39:07.696Z,61.94
2023-05-22T15:43:20.105Z,61.22
2023-05-22T15:47:31.907Z,61.27
2023-05-22T15:51:43.608Z,61.25
2023-05-22T15:55:55.333Z,60.51
2023-05-22T16:00:08.135Z,58.69
2023-05-22T16:04:19.842Z,58.68
2023-05-22T16:08:31.551Z,56.96
2023-05-22T16:12:43.325Z,57.41
2023-05-22T16:16:55.524Z,55.66
2023-05-22T16:21:07.277Z,55.25
2023-05-22T16:25:19.029Z,55.16
2023-05-22T16:29:32.546Z,55.35
2023-05-22T16:33:44.276Z,54.55
2023-05-22T16:37:55.948Z,53.78
2023-05-22T16:42:07.712Z,53.52
2023-05-22T16:46:19.479Z,53.77
2023-05-22T16:50:31.266Z,53.21
2023-05-22T16:54:42.939Z,51.92
2023-05-22T16:58:54.672Z,51.49
2023-05-22T17:03:08.245Z,51.27
2023-05-22T17:07:21.249Z,51.68
2023-05-22T17:11:32.878Z,52.14
2023-05-22T17:15:48.879Z,52.78
2023-05-22T17:20:02.058Z,52.30
2023-05-22T17:24:14.900Z,52.43
2023-05-22T17:28:26.714Z,52.56
2023-05-22T17:32:38.558Z,52.67
2023-05-22T17:36:50.324Z,52.76
2023-05-22T17:41:02.102Z,52.54
2023-05-22T17:45:13.844Z,52.54
2023-05-22T17:49:25.600Z,52.77
2023-05-22T17:53:39.154Z,52.64
2023-05-22T17:57:51.248Z,53.09
2023-05-22T18:02:03.045Z,53.43
2023-05-22T18:06:14.949Z,53.93
2023-05-22T18:10:26.881Z,54.14
2023-05-22T18:14:39.372Z,54.70
2023-05-22T18:18:51.113Z,54.62
2023-05-22T18:23:02.925Z,55.08
2023-05-22T18:27:14.734Z,55.45
2023-05-22T18:31:26.779Z,55.71
2023-05-22T18:35:38.586Z,55.84
2023-05-22T18:39:50.278Z,56.20
2023-05-22T18:44:02.078Z,56.44
2023-05-22T18:48:13.846Z,56.50
2023-05-22T18:52:25.764Z,56.92
2023-05-22T18:56:38.753Z,57.30
2023-05-22T19:00:52.103Z,58.00
2023-05-22T19:05:04.789Z,58.07
2023-05-22T19:09:16.739Z,58.46
2023-05-22T19:13:29.288Z,59.02
2023-05-22T19:17:41.214Z,59.36
2023-05-22T19:21:54.180Z,59.45
2023-05-22T19:26:06.022Z,59.91
2023-05-22T19:30:18.994Z,60.65
2023-05-22T19:34:30.756Z,60.93
2023-05-22T19:38:42.578Z,61.37
2023-05-22T19:42:54.471Z,61.60
2023-05-22T19:47:06.364Z,61.97
2023-05-22T19:51:18.071Z,62.53
2023-05-22T19:55:30.547Z,63.03
2023-05-22T19:59:42.398Z,63.38
2023-05-22T20:03:56.422Z,63.58
2023-05-22T20:08:10.225Z,64.78
2023-05-22T20:12:21.990Z,64.99
2023-05-22T20:16:33.876Z,65.67
2023-05-22T20:20:45.665Z,66.26
2023-05-22T20:24:57.367Z,67.69
2023-05-22T20:29:09.066Z,68.34
2023-05-22T20:33:20.897Z,68.64
2023-05-22T20:37:35.075Z,69.55
2023-05-22T20:41:49.913Z,70.61
2023-05-22T20:46:02.465Z,70.67
2023-05-22T20:50:14.536Z,71.59
2023-05-22T20:54:26.461Z,71.91
2023-05-22T20:58:39.263Z,71.95
2023-05-22T21:02:51.097Z,72.54
2023-05-22T21:07:03.496Z,72.81
2023-05-22T21:11:15.232Z,73.20
2023-05-22T21:15:26.952Z,73.12
2023-05-22T21:19:38.772Z,73.61
2023-05-22T21:23:50.937Z,73.74
2023-05-22T21:28:02.751Z,73.95
2023-05-22T21:32:14.517Z,74.11
2023-05-22T21:36:26.238Z,73.36
2023-05-22T21:40:40.543Z,72.80
2023-05-22T21:44:52.427Z,72.65
2023-05-22T21:49:05.984Z,72.55
2023-05-22T21:53:17.687Z,73.17
2023-05-22T21:57:29.734Z,73.12
2023-05-22T22:01:41.420Z,73.28
2023-05-22T22:05:53.271Z,73.61
2023-05-22T22:10:05.554Z,73.59
2023-05-22T22:14:17.342Z,74.28
2023-05-22T22:18:33.099Z,74.60
2023-05-22T22:22:44.756Z,75.06
2023-05-22T22:26:56.779Z,74.71
2023-05-22T22:31:08.541Z,74.50
2023-05-22T22:35:20.605Z,74.43
2023-05-22T22:39:32.407Z,74.59
2023-05-22T22:43:44.092Z,74.97
2023-05-22T22:47:56.533Z,75.20
2023-05-22T22:52:08.475Z,75.44
2023-05-22T22:56:20.449Z,75.43
2023-05-22T23:00:32.230Z,75.76
2023-05-22T23:04:43.985Z,75.49
2023-05-22T23:08:58.759Z,75.03
2023-05-22T23:13:10.554Z,74.98
2023-05-22T23:17:22.226Z,74.66
2023-05-22T23:21:34.943Z,74.39
2023-05-22T23:25:46.769Z,74.45
2023-05-22T23:29:58.514Z,74.41
2023-05-22T23:34:10.209Z,74.50
2023-05-22T23:38:21.885Z,74.42
2023-05-22T23:42:35.365Z,74.49
2023-05-22T23:46:47.707Z,74.85
2023-05-22T23:50:59.540Z,74.88
2023-05-22T23:55:11.237Z,75.17
2023-05-22T23:59:22.980Z,75.49
